sensor_id;sensor_type;location;lat;lon;timestamp;temperature;humidity
15543;DHT22;7873;52.230;12.856;2023-12-20T00:00:25;27.20;37.50
15543;DHT22;7873;52.230;12.856;2023-12-20T00:02:52;27.20;37.50
15543;DHT22;7873;52.230;12.856;2023-12-20T00:05:18;27.10;37.50
15543;DHT22;7873;52.230;12.856;2023-12-20T00:07:45;27.10;37.60
15543;DHT22;7873;52.230;12.856;2023-12-20T00:10:11;27.10;37.70
15543;DHT22;7873;52.230;12.856;2023-12-20T00:12:38;27.10;37.80
15543;DHT22;7873;52.230;12.856;2023-12-20T00:15:07;27.00;37.70
15543;DHT22;7873;52.230;12.856;2023-12-20T00:17:34;27.00;37.80
15543;DHT22;7873;52.230;12.856;2023-12-20T00:20:01;27.00;37.80
15543;DHT22;7873;52.230;12.856;2023-12-20T00:22:27;27.00;37.80
15543;DHT22;7873;52.230;12.856;2023-12-20T00:24:54;26.90;37.90
15543;DHT22;7873;52.230;12.856;2023-12-20T00:27:20;26.90;37.80
15543;DHT22;7873;52.230;12.856;2023-12-20T00:29:47;26.90;37.90
15543;DHT22;7873;52.230;12.856;2023-12-20T00:32:16;26.80;38.00
15543;DHT22;7873;52.230;12.856;2023-12-20T00:34:43;26.80;38.00
15543;DHT22;7873;52.230;12.856;2023-12-20T00:37:09;26.80;38.00
15543;DHT22;7873;52.230;12.856;2023-12-20T00:39:36;26.80;38.00
15543;DHT22;7873;52.230;12.856;2023-12-20T00:42:02;26.70;38.00
15543;DHT22;7873;52.230;12.856;2023-12-20T00:44:29;26.70;38.10
15543;DHT22;7873;52.230;12.856;2023-12-20T00:46:55;26.70;38.10
15543;DHT22;7873;52.230;12.856;2023-12-20T00:49:23;26.70;38.20
15543;DHT22;7873;52.230;12.856;2023-12-20T00:51:50;26.70;38.30
15543;DHT22;7873;52.230;12.856;2023-12-20T00:54:17;26.60;38.30
15543;DHT22;7873;52.230;12.856;2023-12-20T00:56:44;26.60;38.40
15543;DHT22;7873;52.230;12.856;2023-12-20T00:59:11;26.50;39.10
15543;DHT22;7873;52.230;12.856;2023-12-20T01:01:37;26.50;38.40
15543;DHT22;7873;52.230;12.856;2023-12-20T01:04:04;26.50;38.40
15543;DHT22;7873;52.230;12.856;2023-12-20T01:06:31;26.50;38.50
15543;DHT22;7873;52.230;12.856;2023-12-20T01:08:58;26.50;38.50
15543;DHT22;7873;52.230;12.856;2023-12-20T01:11:24;26.40;38.50
15543;DHT22;7873;52.230;12.856;2023-12-20T01:13:51;26.40;38.60
15543;DHT22;7873;52.230;12.856;2023-12-20T01:16:17;26.40;38.60
15543;DHT22;7873;52.230;12.856;2023-12-20T01:18:44;26.40;38.60
15543;DHT22;7873;52.230;12.856;2023-12-20T01:21:10;26.30;38.60
15543;DHT22;7873;52.230;12.856;2023-12-20T01:23:38;26.30;38.60
15543;DHT22;7873;52.230;12.856;2023-12-20T01:26:04;26.30;38.70
15543;DHT22;7873;52.230;12.856;2023-12-20T01:28:31;26.30;38.70
15543;DHT22;7873;52.230;12.856;2023-12-20T01:30:58;26.30;38.80
15543;DHT22;7873;52.230;12.856;2023-12-20T01:33:24;26.30;39.50
15543;DHT22;7873;52.230;12.856;2023-12-20T01:35:51;26.30;38.80
15543;DHT22;7873;52.230;12.856;2023-12-20T01:38:17;26.20;38.80
15543;DHT22;7873;52.230;12.856;2023-12-20T01:40:45;26.20;38.80
15543;DHT22;7873;52.230;12.856;2023-12-20T01:43:13;26.20;38.80
15543;DHT22;7873;52.230;12.856;2023-12-20T01:45:39;26.10;38.90
15543;DHT22;7873;52.230;12.856;2023-12-20T01:48:07;26.10;38.90
15543;DHT22;7873;52.230;12.856;2023-12-20T01:50:35;26.10;38.90
15543;DHT22;7873;52.230;12.856;2023-12-20T01:53:02;26.10;39.00
15543;DHT22;7873;52.230;12.856;2023-12-20T01:55:31;26.10;39.00
15543;DHT22;7873;52.230;12.856;2023-12-20T01:58:02;26.00;39.00
15543;DHT22;7873;52.230;12.856;2023-12-20T02:00:29;26.00;39.00
15543;DHT22;7873;52.230;12.856;2023-12-20T02:02:57;26.00;39.00
15543;DHT22;7873;52.230;12.856;2023-12-20T02:05:27;26.00;39.10
15543;DHT22;7873;52.230;12.856;2023-12-20T02:07:54;26.00;39.10
15543;DHT22;7873;52.230;12.856;2023-12-20T02:10:20;26.00;39.20
15543;DHT22;7873;52.230;12.856;2023-12-20T02:12:47;26.00;39.20
15543;DHT22;7873;52.230;12.856;2023-12-20T02:15:15;26.00;39.20
15543;DHT22;7873;52.230;12.856;2023-12-20T02:17:41;25.90;39.20
15543;DHT22;7873;52.230;12.856;2023-12-20T02:20:08;25.90;39.20
15543;DHT22;7873;52.230;12.856;2023-12-20T02:22:36;25.90;39.20
15543;DHT22;7873;52.230;12.856;2023-12-20T02:25:03;25.90;39.30
15543;DHT22;7873;52.230;12.856;2023-12-20T02:27:30;25.90;39.30
15543;DHT22;7873;52.230;12.856;2023-12-20T02:29:56;25.80;39.30
15543;DHT22;7873;52.230;12.856;2023-12-20T02:32:23;25.90;39.30
15543;DHT22;7873;52.230;12.856;2023-12-20T02:34:51;25.80;39.30
15543;DHT22;7873;52.230;12.856;2023-12-20T02:37:18;25.80;39.30
15543;DHT22;7873;52.230;12.856;2023-12-20T02:39:46;25.80;39.40
15543;DHT22;7873;52.230;12.856;2023-12-20T02:42:12;25.70;39.40
15543;DHT22;7873;52.230;12.856;2023-12-20T02:44:39;25.70;39.40
15543;DHT22;7873;52.230;12.856;2023-12-20T02:47:05;25.70;39.40
15543;DHT22;7873;52.230;12.856;2023-12-20T02:49:32;25.70;39.40
15543;DHT22;7873;52.230;12.856;2023-12-20T02:51:58;25.70;39.50
15543;DHT22;7873;52.230;12.856;2023-12-20T02:54:25;25.70;39.50
15543;DHT22;7873;52.230;12.856;2023-12-20T02:56:52;25.70;39.50
15543;DHT22;7873;52.230;12.856;2023-12-20T02:59:19;25.60;39.50
15543;DHT22;7873;52.230;12.856;2023-12-20T03:01:45;25.60;39.60
15543;DHT22;7873;52.230;12.856;2023-12-20T03:04:12;25.60;39.60
15543;DHT22;7873;52.230;12.856;2023-12-20T03:06:39;25.60;39.60
15543;DHT22;7873;52.230;12.856;2023-12-20T03:09:05;25.60;39.70
15543;DHT22;7873;52.230;12.856;2023-12-20T03:11:31;25.50;39.50
15543;DHT22;7873;52.230;12.856;2023-12-20T03:13:59;25.60;39.70
15543;DHT22;7873;52.230;12.856;2023-12-20T03:16:26;25.50;39.60
15543;DHT22;7873;52.230;12.856;2023-12-20T03:18:52;25.50;39.70
15543;DHT22;7873;52.230;12.856;2023-12-20T03:21:19;25.50;39.70
15543;DHT22;7873;52.230;12.856;2023-12-20T03:23:45;25.50;39.70
15543;DHT22;7873;52.230;12.856;2023-12-20T03:26:12;25.50;39.80
15543;DHT22;7873;52.230;12.856;2023-12-20T03:28:38;25.40;39.80
15543;DHT22;7873;52.230;12.856;2023-12-20T03:31:06;25.50;39.80
15543;DHT22;7873;52.230;12.856;2023-12-20T03:33:33;25.40;39.80
15543;DHT22;7873;52.230;12.856;2023-12-20T03:35:59;25.40;39.80
15543;DHT22;7873;52.230;12.856;2023-12-20T03:38:26;25.40;39.90
15543;DHT22;7873;52.230;12.856;2023-12-20T03:40:52;25.40;39.90
15543;DHT22;7873;52.230;12.856;2023-12-20T03:43:18;25.30;39.90
15543;DHT22;7873;52.230;12.856;2023-12-20T03:45:45;25.30;40.00
15543;DHT22;7873;52.230;12.856;2023-12-20T03:48:13;25.30;40.00
15543;DHT22;7873;52.230;12.856;2023-12-20T03:50:39;25.30;40.00
15543;DHT22;7873;52.230;12.856;2023-12-20T03:53:06;25.30;40.00
15543;DHT22;7873;52.230;12.856;2023-12-20T03:55:33;25.30;40.00
15543;DHT22;7873;52.230;12.856;2023-12-20T03:57:59;25.30;40.00
15543;DHT22;7873;52.230;12.856;2023-12-20T04:00:26;25.30;40.10
15543;DHT22;7873;52.230;12.856;2023-12-20T04:02:52;25.20;40.00
15543;DHT22;7873;52.230;12.856;2023-12-20T04:05:20;25.20;40.10
15543;DHT22;7873;52.230;12.856;2023-12-20T04:07:46;25.20;40.10
15543;DHT22;7873;52.230;12.856;2023-12-20T04:10:13;25.20;40.10
15543;DHT22;7873;52.230;12.856;2023-12-20T04:12:39;25.20;40.20
15543;DHT22;7873;52.230;12.856;2023-12-20T04:15:06;25.20;40.10
15543;DHT22;7873;52.230;12.856;2023-12-20T04:17:34;25.20;40.10
15543;DHT22;7873;52.230;12.856;2023-12-20T04:20:01;25.20;38.40
15543;DHT22;7873;52.230;12.856;2023-12-20T04:22:29;25.30;38.10
15543;DHT22;7873;52.230;12.856;2023-12-20T04:24:55;25.40;40.00
15543;DHT22;7873;52.230;12.856;2023-12-20T04:27:22;25.50;39.10
15543;DHT22;7873;52.230;12.856;2023-12-20T04:29:48;25.60;38.70
15543;DHT22;7873;52.230;12.856;2023-12-20T04:32:15;25.60;38.30
15543;DHT22;7873;52.230;12.856;2023-12-20T04:34:41;25.60;38.00
15543;DHT22;7873;52.230;12.856;2023-12-20T04:37:07;25.60;37.80
15543;DHT22;7873;52.230;12.856;2023-12-20T04:39:35;25.60;37.00
15543;DHT22;7873;52.230;12.856;2023-12-20T04:42:02;25.60;37.50
15543;DHT22;7873;52.230;12.856;2023-12-20T04:44:28;25.50;38.10
15543;DHT22;7873;52.230;12.856;2023-12-20T04:46:55;25.40;36.50
15543;DHT22;7873;52.230;12.856;2023-12-20T04:49:22;25.40;36.90
15543;DHT22;7873;52.230;12.856;2023-12-20T04:51:49;25.50;36.40
15543;DHT22;7873;52.230;12.856;2023-12-20T04:54:15;25.60;36.10
15543;DHT22;7873;52.230;12.856;2023-12-20T04:56:43;25.70;36.50
15543;DHT22;7873;52.230;12.856;2023-12-20T04:59:09;25.70;36.70
15543;DHT22;7873;52.230;12.856;2023-12-20T05:01:36;25.50;35.50
15543;DHT22;7873;52.230;12.856;2023-12-20T05:04:02;25.50;36.30
15543;DHT22;7873;52.230;12.856;2023-12-20T05:06:29;25.60;36.30
15543;DHT22;7873;52.230;12.856;2023-12-20T05:08:55;25.60;36.10
15543;DHT22;7873;52.230;12.856;2023-12-20T05:11:22;25.10;34.00
15543;DHT22;7873;52.230;12.856;2023-12-20T05:13:50;25.00;34.90
15543;DHT22;7873;52.230;12.856;2023-12-20T05:16:16;24.90;35.20
15543;DHT22;7873;52.230;12.856;2023-12-20T05:18:43;25.00;35.60
15543;DHT22;7873;52.230;12.856;2023-12-20T05:21:09;25.00;35.60
15543;DHT22;7873;52.230;12.856;2023-12-20T05:23:36;25.00;35.70
15543;DHT22;7873;52.230;12.856;2023-12-20T05:26:02;25.00;36.00
15543;DHT22;7873;52.230;12.856;2023-12-20T05:28:29;25.00;36.90
15543;DHT22;7873;52.230;12.856;2023-12-20T05:30:57;25.00;36.10
15543;DHT22;7873;52.230;12.856;2023-12-20T05:33:23;25.00;36.30
15543;DHT22;7873;52.230;12.856;2023-12-20T05:35:50;25.00;36.50
15543;DHT22;7873;52.230;12.856;2023-12-20T05:38:16;25.00;37.50
15543;DHT22;7873;52.230;12.856;2023-12-20T05:40:43;25.00;36.70
15543;DHT22;7873;52.230;12.856;2023-12-20T05:43:09;25.00;37.40
15543;DHT22;7873;52.230;12.856;2023-12-20T05:45:36;25.00;36.70
15543;DHT22;7873;52.230;12.856;2023-12-20T05:48:04;25.00;36.80
15543;DHT22;7873;52.230;12.856;2023-12-20T05:50:31;24.90;36.90
15543;DHT22;7873;52.230;12.856;2023-12-20T05:52:57;25.00;37.10
15543;DHT22;7873;52.230;12.856;2023-12-20T05:55:24;24.90;37.40
15543;DHT22;7873;52.230;12.856;2023-12-20T05:57:50;24.90;37.30
15543;DHT22;7873;52.230;12.856;2023-12-20T06:00:17;24.80;37.60
15543;DHT22;7873;52.230;12.856;2023-12-20T06:02:44;24.70;36.00
15543;DHT22;7873;52.230;12.856;2023-12-20T06:05:12;24.30;32.80
15543;DHT22;7873;52.230;12.856;2023-12-20T06:07:39;23.60;33.10
15543;DHT22;7873;52.230;12.856;2023-12-20T06:10:06;23.30;33.50
15543;DHT22;7873;52.230;12.856;2023-12-20T06:12:33;23.10;33.90
15543;DHT22;7873;52.230;12.856;2023-12-20T06:15:01;22.80;33.90
15543;DHT22;7873;52.230;12.856;2023-12-20T06:17:28;22.70;35.40
15543;DHT22;7873;52.230;12.856;2023-12-20T06:19:55;23.10;35.50
15543;DHT22;7873;52.230;12.856;2023-12-20T06:22:23;23.40;36.40
15543;DHT22;7873;52.230;12.856;2023-12-20T06:24:50;23.60;36.40
15543;DHT22;7873;52.230;12.856;2023-12-20T06:27:16;23.80;36.20
15543;DHT22;7873;52.230;12.856;2023-12-20T06:29:43;23.80;36.90
15543;DHT22;7873;52.230;12.856;2023-12-20T06:32:10;23.90;36.60
15543;DHT22;7873;52.230;12.856;2023-12-20T06:34:36;23.90;36.60
15543;DHT22;7873;52.230;12.856;2023-12-20T06:37:03;23.80;37.80
15543;DHT22;7873;52.230;12.856;2023-12-20T06:39:31;23.60;39.20
15543;DHT22;7873;52.230;12.856;2023-12-20T06:41:59;23.50;40.80
15543;DHT22;7873;52.230;12.856;2023-12-20T06:44:25;23.40;45.20
15543;DHT22;7873;52.230;12.856;2023-12-20T06:46:52;23.40;46.00
15543;DHT22;7873;52.230;12.856;2023-12-20T06:49:18;23.30;46.30
15543;DHT22;7873;52.230;12.856;2023-12-20T06:51:45;23.20;46.40
15543;DHT22;7873;52.230;12.856;2023-12-20T06:54:11;23.20;46.50
15543;DHT22;7873;52.230;12.856;2023-12-20T06:56:39;23.20;46.60
15543;DHT22;7873;52.230;12.856;2023-12-20T06:59:06;23.20;47.00
15543;DHT22;7873;52.230;12.856;2023-12-20T07:01:33;23.20;47.10
15543;DHT22;7873;52.230;12.856;2023-12-20T07:03:59;23.20;46.90
15543;DHT22;7873;52.230;12.856;2023-12-20T07:06:25;23.20;46.60
15543;DHT22;7873;52.230;12.856;2023-12-20T07:08:52;23.30;46.70
15543;DHT22;7873;52.230;12.856;2023-12-20T07:11:18;23.30;46.60
15543;DHT22;7873;52.230;12.856;2023-12-20T07:13:46;23.40;46.60
15543;DHT22;7873;52.230;12.856;2023-12-20T07:16:13;23.40;46.10
15543;DHT22;7873;52.230;12.856;2023-12-20T07:18:39;23.40;46.40
15543;DHT22;7873;52.230;12.856;2023-12-20T07:21:06;23.40;45.40
15543;DHT22;7873;52.230;12.856;2023-12-20T07:23:33;23.40;45.90
15543;DHT22;7873;52.230;12.856;2023-12-20T07:25:59;23.30;44.90
15543;DHT22;7873;52.230;12.856;2023-12-20T07:28:26;23.30;46.60
15543;DHT22;7873;52.230;12.856;2023-12-20T07:30:54;23.30;46.70
15543;DHT22;7873;52.230;12.856;2023-12-20T07:33:20;23.30;46.60
15543;DHT22;7873;52.230;12.856;2023-12-20T07:35:47;23.30;46.10
15543;DHT22;7873;52.230;12.856;2023-12-20T07:38:13;23.20;45.80
15543;DHT22;7873;52.230;12.856;2023-12-20T07:40:40;23.30;44.50
15543;DHT22;7873;52.230;12.856;2023-12-20T07:43:06;23.20;46.00
15543;DHT22;7873;52.230;12.856;2023-12-20T07:45:32;23.20;46.40
15543;DHT22;7873;52.230;12.856;2023-12-20T07:48:01;23.20;45.40
15543;DHT22;7873;52.230;12.856;2023-12-20T07:50:27;23.20;45.00
15543;DHT22;7873;52.230;12.856;2023-12-20T07:52:54;23.20;46.10
15543;DHT22;7873;52.230;12.856;2023-12-20T07:55:20;23.20;46.20
15543;DHT22;7873;52.230;12.856;2023-12-20T07:57:47;23.20;45.70
15543;DHT22;7873;52.230;12.856;2023-12-20T08:00:14;23.30;45.20
15543;DHT22;7873;52.230;12.856;2023-12-20T08:02:41;23.20;44.80
15543;DHT22;7873;52.230;12.856;2023-12-20T08:05:09;23.20;45.50
15543;DHT22;7873;52.230;12.856;2023-12-20T08:07:36;23.20;45.30
15543;DHT22;7873;52.230;12.856;2023-12-20T08:10:02;23.20;46.10
15543;DHT22;7873;52.230;12.856;2023-12-20T08:12:29;23.20;46.00
15543;DHT22;7873;52.230;12.856;2023-12-20T08:14:56;23.20;45.60
15543;DHT22;7873;52.230;12.856;2023-12-20T08:17:23;23.20;45.10
15543;DHT22;7873;52.230;12.856;2023-12-20T08:19:49;23.20;44.60
15543;DHT22;7873;52.230;12.856;2023-12-20T08:22:17;23.20;45.70
15543;DHT22;7873;52.230;12.856;2023-12-20T08:24:43;23.20;45.30
15543;DHT22;7873;52.230;12.856;2023-12-20T08:27:10;23.20;45.50
15543;DHT22;7873;52.230;12.856;2023-12-20T08:29:36;23.20;45.80
15543;DHT22;7873;52.230;12.856;2023-12-20T08:32:03;23.20;45.00
15543;DHT22;7873;52.230;12.856;2023-12-20T08:34:30;23.20;45.40
15543;DHT22;7873;52.230;12.856;2023-12-20T08:36:57;23.20;44.50
15543;DHT22;7873;52.230;12.856;2023-12-20T08:39:25;23.10;44.10
15543;DHT22;7873;52.230;12.856;2023-12-20T08:41:51;23.10;45.50
15543;DHT22;7873;52.230;12.856;2023-12-20T08:44:18;23.20;44.80
15543;DHT22;7873;52.230;12.856;2023-12-20T08:46:44;23.10;44.00
15543;DHT22;7873;52.230;12.856;2023-12-20T08:49:11;23.10;44.00
15543;DHT22;7873;52.230;12.856;2023-12-20T08:51:37;23.10;45.00
15543;DHT22;7873;52.230;12.856;2023-12-20T08:54:06;23.10;44.20
15543;DHT22;7873;52.230;12.856;2023-12-20T08:56:35;23.10;44.70
15543;DHT22;7873;52.230;12.856;2023-12-20T08:59:01;23.10;44.70
15543;DHT22;7873;52.230;12.856;2023-12-20T09:01:28;23.10;45.30
15543;DHT22;7873;52.230;12.856;2023-12-20T09:03:54;23.10;45.00
15543;DHT22;7873;52.230;12.856;2023-12-20T09:06:20;23.10;44.80
15543;DHT22;7873;52.230;12.856;2023-12-20T09:08:47;23.10;45.20
15543;DHT22;7873;52.230;12.856;2023-12-20T09:11:13;23.10;44.40
15543;DHT22;7873;52.230;12.856;2023-12-20T09:13:41;23.10;44.50
15543;DHT22;7873;52.230;12.856;2023-12-20T09:16:08;23.00;44.80
15543;DHT22;7873;52.230;12.856;2023-12-20T09:18:34;23.00;44.70
15543;DHT22;7873;52.230;12.856;2023-12-20T09:21:01;23.00;44.70
15543;DHT22;7873;52.230;12.856;2023-12-20T09:23:27;23.00;44.20
15543;DHT22;7873;52.230;12.856;2023-12-20T09:25:54;23.00;44.50
15543;DHT22;7873;52.230;12.856;2023-12-20T09:28:20;23.00;44.20
15543;DHT22;7873;52.230;12.856;2023-12-20T09:30:48;23.00;44.60
15543;DHT22;7873;52.230;12.856;2023-12-20T09:33:15;23.00;44.50
15543;DHT22;7873;52.230;12.856;2023-12-20T09:35:42;23.00;44.50
15543;DHT22;7873;52.230;12.856;2023-12-20T09:38:09;22.90;44.60
15543;DHT22;7873;52.230;12.856;2023-12-20T09:40:36;22.90;44.20
15543;DHT22;7873;52.230;12.856;2023-12-20T09:43:08;22.90;44.50
15543;DHT22;7873;52.230;12.856;2023-12-20T09:45:38;22.90;44.70
15543;DHT22;7873;52.230;12.856;2023-12-20T09:48:08;22.80;44.60
15543;DHT22;7873;52.230;12.856;2023-12-20T09:50:37;22.90;44.80
15543;DHT22;7873;52.230;12.856;2023-12-20T09:53:04;22.80;44.50
15543;DHT22;7873;52.230;12.856;2023-12-20T09:55:36;22.80;44.30
15543;DHT22;7873;52.230;12.856;2023-12-20T09:58:02;22.80;44.90
15543;DHT22;7873;52.230;12.856;2023-12-20T10:00:29;22.80;45.10
15543;DHT22;7873;52.230;12.856;2023-12-20T10:02:57;22.80;44.80
15543;DHT22;7873;52.230;12.856;2023-12-20T10:05:27;22.80;44.90
15543;DHT22;7873;52.230;12.856;2023-12-20T10:07:54;22.80;44.90
15543;DHT22;7873;52.230;12.856;2023-12-20T10:10:20;22.70;44.60
15543;DHT22;7873;52.230;12.856;2023-12-20T10:13:00;22.70;44.80
15543;DHT22;7873;52.230;12.856;2023-12-20T10:15:28;22.70;44.80
15543;DHT22;7873;52.230;12.856;2023-12-20T10:17:54;22.70;44.80
15543;DHT22;7873;52.230;12.856;2023-12-20T10:20:21;22.70;45.00
15543;DHT22;7873;52.230;12.856;2023-12-20T10:22:48;22.60;44.70
15543;DHT22;7873;52.230;12.856;2023-12-20T10:25:15;22.60;45.00
15543;DHT22;7873;52.230;12.856;2023-12-20T10:27:42;22.60;44.80
15543;DHT22;7873;52.230;12.856;2023-12-20T10:30:09;22.60;45.10
15543;DHT22;7873;52.230;12.856;2023-12-20T10:32:36;22.60;45.80
15543;DHT22;7873;52.230;12.856;2023-12-20T10:35:03;22.60;45.00
15543;DHT22;7873;52.230;12.856;2023-12-20T10:37:30;22.60;45.10
15543;DHT22;7873;52.230;12.856;2023-12-20T10:39:58;22.60;45.20
15543;DHT22;7873;52.230;12.856;2023-12-20T10:42:26;22.60;45.20
15543;DHT22;7873;52.230;12.856;2023-12-20T10:44:53;22.60;45.00
15543;DHT22;7873;52.230;12.856;2023-12-20T10:47:19;22.50;45.10
15543;DHT22;7873;52.230;12.856;2023-12-20T10:49:46;22.60;45.10
15543;DHT22;7873;52.230;12.856;2023-12-20T10:52:13;22.50;45.10
15543;DHT22;7873;52.230;12.856;2023-12-20T10:54:41;22.50;44.80
15543;DHT22;7873;52.230;12.856;2023-12-20T10:57:09;22.50;45.00
15543;DHT22;7873;52.230;12.856;2023-12-20T10:59:36;22.50;45.00
15543;DHT22;7873;52.230;12.856;2023-12-20T11:02:03;22.50;45.00
15543;DHT22;7873;52.230;12.856;2023-12-20T11:04:34;22.50;45.00
15543;DHT22;7873;52.230;12.856;2023-12-20T11:07:07;22.50;45.00
15543;DHT22;7873;52.230;12.856;2023-12-20T11:09:45;22.50;44.80
15543;DHT22;7873;52.230;12.856;2023-12-20T11:12:19;22.50;44.70
15543;DHT22;7873;52.230;12.856;2023-12-20T11:14:52;22.40;45.10
15543;DHT22;7873;52.230;12.856;2023-12-20T11:17:21;22.40;44.70
15543;DHT22;7873;52.230;12.856;2023-12-20T11:20:06;22.40;44.80
15543;DHT22;7873;52.230;12.856;2023-12-20T11:22:35;22.40;45.10
15543;DHT22;7873;52.230;12.856;2023-12-20T11:25:04;22.40;44.50
15543;DHT22;7873;52.230;12.856;2023-12-20T11:27:35;22.40;44.30
15543;DHT22;7873;52.230;12.856;2023-12-20T11:30:02;22.40;44.70
15543;DHT22;7873;52.230;12.856;2023-12-20T11:32:31;22.40;44.60
15543;DHT22;7873;52.230;12.856;2023-12-20T11:35:00;22.40;44.90
15543;DHT22;7873;52.230;12.856;2023-12-20T11:37:28;22.40;44.80
15543;DHT22;7873;52.230;12.856;2023-12-20T11:40:00;22.30;44.90
15543;DHT22;7873;52.230;12.856;2023-12-20T11:42:27;22.40;44.80
15543;DHT22;7873;52.230;12.856;2023-12-20T11:44:55;22.30;44.80
15543;DHT22;7873;52.230;12.856;2023-12-20T11:47:22;22.30;44.90
15543;DHT22;7873;52.230;12.856;2023-12-20T11:49:48;22.30;44.60
15543;DHT22;7873;52.230;12.856;2023-12-20T11:52:16;22.30;44.50
15543;DHT22;7873;52.230;12.856;2023-12-20T11:54:43;22.30;44.60
15543;DHT22;7873;52.230;12.856;2023-12-20T11:57:09;22.30;44.50
15543;DHT22;7873;52.230;12.856;2023-12-20T11:59:36;22.30;44.40
15543;DHT22;7873;52.230;12.856;2023-12-20T12:02:04;22.30;44.40
15543;DHT22;7873;52.230;12.856;2023-12-20T12:04:30;22.30;44.40
15543;DHT22;7873;52.230;12.856;2023-12-20T12:06:56;22.30;44.50
15543;DHT22;7873;52.230;12.856;2023-12-20T12:09:23;22.30;45.10
15543;DHT22;7873;52.230;12.856;2023-12-20T12:11:48;22.30;44.20
15543;DHT22;7873;52.230;12.856;2023-12-20T12:14:15;22.30;44.20
15543;DHT22;7873;52.230;12.856;2023-12-20T12:16:42;22.30;44.30
15543;DHT22;7873;52.230;12.856;2023-12-20T12:19:20;22.30;44.20
15543;DHT22;7873;52.230;12.856;2023-12-20T12:21:47;22.30;44.00
15543;DHT22;7873;52.230;12.856;2023-12-20T12:24:14;22.30;44.20
15543;DHT22;7873;52.230;12.856;2023-12-20T12:26:40;22.20;44.00
15543;DHT22;7873;52.230;12.856;2023-12-20T12:29:07;22.20;43.90
15543;DHT22;7873;52.230;12.856;2023-12-20T12:31:34;22.20;43.90
15543;DHT22;7873;52.230;12.856;2023-12-20T12:34:01;22.20;43.90
15543;DHT22;7873;52.230;12.856;2023-12-20T12:36:29;22.20;44.00
15543;DHT22;7873;52.230;12.856;2023-12-20T12:38:56;22.20;43.60
15543;DHT22;7873;52.230;12.856;2023-12-20T12:41:23;22.20;43.70
15543;DHT22;7873;52.230;12.856;2023-12-20T12:43:49;22.20;43.80
15543;DHT22;7873;52.230;12.856;2023-12-20T12:46:15;22.20;43.60
15543;DHT22;7873;52.230;12.856;2023-12-20T12:48:42;22.20;43.60
15543;DHT22;7873;52.230;12.856;2023-12-20T12:51:09;22.10;44.20
15543;DHT22;7873;52.230;12.856;2023-12-20T12:53:39;22.10;43.50
15543;DHT22;7873;52.230;12.856;2023-12-20T12:56:06;22.10;43.60
15543;DHT22;7873;52.230;12.856;2023-12-20T12:58:33;22.10;43.40
15543;DHT22;7873;52.230;12.856;2023-12-20T13:01:00;22.10;43.50
15543;DHT22;7873;52.230;12.856;2023-12-20T13:03:26;22.10;43.70
15543;DHT22;7873;52.230;12.856;2023-12-20T13:05:53;22.10;43.40
15543;DHT22;7873;52.230;12.856;2023-12-20T13:08:20;22.10;43.40
15543;DHT22;7873;52.230;12.856;2023-12-20T13:10:48;22.10;43.40
15543;DHT22;7873;52.230;12.856;2023-12-20T13:13:14;22.10;43.10
15543;DHT22;7873;52.230;12.856;2023-12-20T13:15:41;22.10;43.30
15543;DHT22;7873;52.230;12.856;2023-12-20T13:18:07;22.10;43.40
15543;DHT22;7873;52.230;12.856;2023-12-20T13:20:34;22.10;43.00
15543;DHT22;7873;52.230;12.856;2023-12-20T13:23:00;22.00;43.10
15543;DHT22;7873;52.230;12.856;2023-12-20T13:25:28;22.00;43.10
15543;DHT22;7873;52.230;12.856;2023-12-20T13:27:57;22.10;42.80
15543;DHT22;7873;52.230;12.856;2023-12-20T13:30:24;22.10;42.80
15543;DHT22;7873;52.230;12.856;2023-12-20T13:32:51;22.10;42.70
15543;DHT22;7873;52.230;12.856;2023-12-20T13:35:17;22.10;42.60
15543;DHT22;7873;52.230;12.856;2023-12-20T13:37:43;22.00;42.60
15543;DHT22;7873;52.230;12.856;2023-12-20T13:40:10;22.00;42.60
15543;DHT22;7873;52.230;12.856;2023-12-20T13:42:37;22.00;42.50
15543;DHT22;7873;52.230;12.856;2023-12-20T13:45:06;22.00;42.60
15543;DHT22;7873;52.230;12.856;2023-12-20T13:47:33;22.00;42.70
15543;DHT22;7873;52.230;12.856;2023-12-20T13:50:01;22.00;42.60
15543;DHT22;7873;52.230;12.856;2023-12-20T13:52:29;22.00;42.50
15543;DHT22;7873;52.230;12.856;2023-12-20T13:54:55;22.00;42.30
15543;DHT22;7873;52.230;12.856;2023-12-20T13:57:22;22.00;42.30
15543;DHT22;7873;52.230;12.856;2023-12-20T13:59:48;22.00;42.40
15543;DHT22;7873;52.230;12.856;2023-12-20T14:02:16;22.00;42.30
15543;DHT22;7873;52.230;12.856;2023-12-20T14:04:42;21.90;42.10
15543;DHT22;7873;52.230;12.856;2023-12-20T14:07:09;21.90;42.40
15543;DHT22;7873;52.230;12.856;2023-12-20T14:09:35;21.90;42.30
15543;DHT22;7873;52.230;12.856;2023-12-20T14:12:02;21.90;42.30
15543;DHT22;7873;52.230;12.856;2023-12-20T14:14:29;21.90;42.40
15543;DHT22;7873;52.230;12.856;2023-12-20T14:16:56;21.90;42.40
15543;DHT22;7873;52.230;12.856;2023-12-20T14:19:23;21.90;42.10
15543;DHT22;7873;52.230;12.856;2023-12-20T14:21:50;21.90;42.00
15543;DHT22;7873;52.230;12.856;2023-12-20T14:24:16;21.90;42.20
15543;DHT22;7873;52.230;12.856;2023-12-20T14:26:43;21.90;41.90
15543;DHT22;7873;52.230;12.856;2023-12-20T14:29:09;21.90;42.00
15543;DHT22;7873;52.230;12.856;2023-12-20T14:31:36;21.90;42.00
15543;DHT22;7873;52.230;12.856;2023-12-20T14:34:04;21.90;42.00
15543;DHT22;7873;52.230;12.856;2023-12-20T14:36:32;21.90;42.00
15543;DHT22;7873;52.230;12.856;2023-12-20T14:38:58;21.90;41.80
15543;DHT22;7873;52.230;12.856;2023-12-20T14:41:26;21.90;41.70
15543;DHT22;7873;52.230;12.856;2023-12-20T14:43:53;21.90;41.90
15543;DHT22;7873;52.230;12.856;2023-12-20T14:46:19;21.90;41.70
15543;DHT22;7873;52.230;12.856;2023-12-20T14:48:46;21.90;41.80
15543;DHT22;7873;52.230;12.856;2023-12-20T14:51:13;21.80;41.80
15543;DHT22;7873;52.230;12.856;2023-12-20T14:53:41;21.80;41.80
15543;DHT22;7873;52.230;12.856;2023-12-20T14:56:07;21.80;41.70
15543;DHT22;7873;52.230;12.856;2023-12-20T14:58:34;21.80;41.80
15543;DHT22;7873;52.230;12.856;2023-12-20T15:01:02;21.80;41.80
15543;DHT22;7873;52.230;12.856;2023-12-20T15:03:28;21.80;40.00
15543;DHT22;7873;52.230;12.856;2023-12-20T15:05:55;21.80;40.90
15543;DHT22;7873;52.230;12.856;2023-12-20T15:08:24;21.80;41.80
15543;DHT22;7873;52.230;12.856;2023-12-20T15:10:51;21.90;41.10
15543;DHT22;7873;52.230;12.856;2023-12-20T15:13:18;22.00;40.80
15543;DHT22;7873;52.230;12.856;2023-12-20T15:15:44;22.00;40.20
15543;DHT22;7873;52.230;12.856;2023-12-20T15:18:11;22.00;40.70
15543;DHT22;7873;52.230;12.856;2023-12-20T15:20:37;22.00;41.00
15543;DHT22;7873;52.230;12.856;2023-12-20T15:23:04;22.10;41.10
15543;DHT22;7873;52.230;12.856;2023-12-20T15:25:32;22.10;41.80
15543;DHT22;7873;52.230;12.856;2023-12-20T15:28:00;22.10;40.90